Time;durP1;ratioP1;P1;durP2;ratioP2;P2;SDS_P1;SDS_P2;PMS_P1;PMS_P2;Temp;Humidity;BMP_temperature;BMP_pressure;BME280_temperature;BME280_humidity;BME280_pressure;Samples;Min_cycle;Max_cycle;Signal;HPM_P1;HPM_P2
2023/06/13 00:00:59;;;;;;;5.85;4.15;;;20.70;81.70;;;;;;5018877;28;20050;-67
2023/06/13 00:03:29;;;;;;;7.05;4.40;;;20.60;82.00;;;;;;5017404;28;20041;-67
2023/06/13 00:05:55;;;;;;;8.05;3.47;;;20.70;82.50;;;;;;5017964;28;20018;-67
2023/06/13 00:08:21;;;;;;;5.72;3.42;;;20.70;82.90;;;;;;5017173;28;20022;-66
2023/06/13 00:10:50;;;;;;;5.20;3.20;;;20.70;83.40;;;;;;5017896;28;20134;-68
2023/06/13 00:13:17;;;;;;;7.43;3.78;;;20.50;83.10;;;;;;5017055;28;20018;-67
2023/06/13 00:15:52;;;;;;;5.95;3.88;;;20.50;83.30;;;;;;5016930;28;20026;-67
2023/06/13 00:18:19;;;;;;;6.28;3.13;;;20.40;84.10;;;;;;5017318;28;20025;-67
2023/06/13 00:20:45;;;;;;;7.47;3.40;;;20.40;84.50;;;;;;5016921;28;20028;-67
2023/06/13 00:23:12;;;;;;;4.85;3.15;;;20.40;84.00;;;;;;5017784;28;20022;-67
2023/06/13 00:25:38;;;;;;;7.40;3.35;;;20.40;84.30;;;;;;5017458;28;20030;-67
2023/06/13 00:28:03;;;;;;;7.82;3.20;;;20.30;84.20;;;;;;5016970;28;20021;-67
2023/06/13 00:30:30;;;;;;;4.63;3.40;;;20.30;85.50;;;;;;5016922;28;20032;-67
2023/06/13 00:32:55;;;;;;;12.02;3.58;;;20.20;85.30;;;;;;5016874;28;20026;-67
2023/06/13 00:35:22;;;;;;;6.38;3.85;;;20.10;85.20;;;;;;5016624;28;20018;-66
2023/06/13 00:37:50;;;;;;;7.57;3.63;;;20.10;86.10;;;;;;5016452;28;20104;-67
2023/06/13 00:40:17;;;;;;;8.88;3.53;;;20.00;88.20;;;;;;5016515;28;20033;-67
2023/06/13 00:42:43;;;;;;;7.13;3.72;;;20.00;86.70;;;;;;5016506;28;20034;-67
2023/06/13 00:45:28;;;;;;;5.50;3.35;;;19.80;87.00;;;;;;5016434;28;20080;-67
2023/06/13 00:47:59;;;;;;;7.90;3.67;;;19.80;87.70;;;;;;5017107;28;20029;-67
2023/06/13 00:50:28;;;;;;;6.13;3.92;;;19.90;86.90;;;;;;5017289;28;20100;-66
2023/06/13 00:53:18;;;;;;;6.47;3.72;;;19.90;87.00;;;;;;5016408;28;20094;-67
2023/06/13 00:55:44;;;;;;;7.18;3.78;;;19.90;86.80;;;;;;5017322;28;20022;-67
2023/06/13 00:58:11;;;;;;;6.65;3.28;;;19.90;86.80;;;;;;5017276;28;20029;-67
2023/06/13 01:00:43;;;;;;;7.60;3.80;;;19.90;87.00;;;;;;5016538;28;20030;-66
2023/06/13 01:03:14;;;;;;;6.97;3.90;;;19.80;87.10;;;;;;5017039;28;20025;-67
2023/06/13 01:05:41;;;;;;;5.28;3.47;;;19.80;87.50;;;;;;5016902;28;20061;-67
2023/06/13 01:08:13;;;;;;;6.45;3.63;;;19.80;87.80;;;;;;5016282;28;20030;-67
2023/06/13 01:10:41;;;;;;;6.88;3.45;;;19.70;87.90;;;;;;5016976;28;20088;-66
2023/06/13 01:13:16;;;;;;;4.63;3.47;;;19.70;88.40;;;;;;5017097;28;20026;-67
2023/06/13 01:15:59;;;;;;;7.60;3.97;;;19.70;88.50;;;;;;5000838;28;20077;-67
2023/06/13 01:18:25;;;;;;;9.27;3.63;;;19.70;88.40;;;;;;5021351;28;20026;-67
2023/06/13 01:20:56;;;;;;;5.82;3.60;;;19.70;88.80;;;;;;5021162;28;20022;-67
2023/06/13 01:23:32;;;;;;;5.68;3.67;;;19.60;89.80;;;;;;5020214;28;20072;-67
2023/06/13 01:26:13;;;;;;;9.02;3.38;;;19.40;89.20;;;;;;5048570;22;20051;-67
2023/06/13 01:28:41;;;;;;;6.25;3.38;;;19.40;90.20;;;;;;5024457;28;20040;-67
2023/06/13 01:31:10;;;;;;;5.40;3.47;;;19.30;90.40;;;;;;5040591;28;20080;-67
2023/06/13 01:33:36;;;;;;;4.97;3.53;;;19.10;90.70;;;;;;5024351;28;20030;-67
2023/06/13 01:36:02;;;;;;;6.47;3.75;;;19.00;91.00;;;;;;5040898;28;20021;-67
2023/06/13 01:38:27;;;;;;;6.18;3.80;;;18.90;91.30;;;;;;5023414;28;20033;-67
2023/06/13 01:40:53;;;;;;;6.05;4.20;;;18.90;91.40;;;;;;5023374;28;20022;-67
2023/06/13 01:43:18;;;;;;;6.60;4.25;;;18.80;91.90;;;;;;5023207;28;20018;-67
2023/06/13 01:45:45;;;;;;;6.95;4.10;;;18.70;92.20;;;;;;5023020;28;20052;-67
2023/06/13 01:48:20;;;;;;;9.80;4.22;;;18.60;92.60;;;;;;5023893;28;20030;-66
2023/06/13 01:50:51;;;;;;;5.72;4.07;;;18.60;92.60;;;;;;5022969;28;20034;-66
2023/06/13 01:53:25;;;;;;;5.95;3.83;;;18.50;93.00;;;;;;5040800;28;20021;-66
2023/06/13 01:55:55;;;;;;;7.07;4.10;;;18.50;93.20;;;;;;5023454;28;20029;-66
2023/06/13 01:58:26;;;;;;;5.70;3.97;;;18.30;93.60;;;;;;5040249;28;20097;-66
2023/06/13 02:00:55;;;;;;;7.88;3.92;;;18.10;94.20;;;;;;5023657;28;20018;-66
2023/06/13 02:03:21;;;;;;;10.30;4.15;;;18.10;94.90;;;;;;5022841;28;20029;-66
2023/06/13 02:05:47;;;;;;;6.57;3.70;;;18.00;95.30;;;;;;5022607;28;20049;-66
2023/06/13 02:08:13;;;;;;;7.40;4.28;;;18.10;95.60;;;;;;5022632;28;20116;-66
2023/06/13 02:10:38;;;;;;;5.60;4.03;;;18.00;95.80;;;;;;5040499;28;20068;-66
2023/06/13 02:13:05;;;;;;;13.38;4.00;;;18.10;96.10;;;;;;5040399;28;20028;-66
2023/06/13 02:15:31;;;;;;;9.13;4.15;;;18.00;96.90;;;;;;5022951;28;20026;-66
2023/06/13 02:17:56;;;;;;;8.27;3.90;;;17.90;97.10;;;;;;5023123;28;20067;-66
2023/06/13 02:20:22;;;;;;;6.05;3.90;;;17.90;97.50;;;;;;5022385;28;20163;-66
2023/06/13 02:22:47;;;;;;;7.38;4.50;;;17.80;98.00;;;;;;5022893;28;20025;-66
2023/06/13 02:25:14;;;;;;;7.63;4.25;;;17.80;98.80;;;;;;5022397;28;20026;-66
2023/06/13 02:27:40;;;;;;;5.90;3.80;;;17.80;99.40;;;;;;5021808;28;20057;-66
2023/06/13 02:30:08;;;;;;;6.28;3.72;;;17.60;99.90;;;;;;5022457;28;20025;-66
2023/06/13 02:32:36;;;;;;;6.35;3.53;;;17.50;99.90;;;;;;5023172;28;20021;-66
2023/06/13 02:35:02;;;;;;;9.02;4.03;;;17.70;99.90;;;;;;5022853;28;20049;-66
2023/06/13 02:37:28;;;;;;;6.10;4.00;;;17.60;99.90;;;;;;5022322;28;20017;-66
2023/06/13 02:39:53;;;;;;;10.23;3.88;;;17.60;99.90;;;;;;5022357;28;20025;-66
2023/06/13 02:42:19;;;;;;;7.43;3.95;;;17.50;99.90;;;;;;5022460;28;20041;-66
2023/06/13 02:44:44;;;;;;;6.70;3.75;;;17.60;99.90;;;;;;5022009;28;20048;-67
2023/06/13 02:47:10;;;;;;;7.78;4.40;;;17.50;99.90;;;;;;5022281;28;20025;-67
2023/06/13 02:49:35;;;;;;;7.28;3.78;;;17.50;99.90;;;;;;5022001;28;20029;-67
2023/06/13 02:52:01;;;;;;;5.57;4.18;;;17.30;99.90;;;;;;5022050;28;20049;-67
2023/06/13 02:54:27;;;;;;;6.07;4.57;;;17.30;99.90;;;;;;5022231;28;20072;-67
2023/06/13 02:56:52;;;;;;;5.63;4.05;;;17.30;99.90;;;;;;5021959;28;20032;-66
2023/06/13 02:59:19;;;;;;;7.28;4.60;;;17.20;99.90;;;;;;5022864;28;20021;-66
2023/06/13 03:01:45;;;;;;;7.47;4.13;;;17.10;99.90;;;;;;5021889;28;20036;-66
2023/06/13 03:04:11;;;;;;;7.65;4.22;;;17.10;99.90;;;;;;5022427;28;20021;-66
2023/06/13 03:06:40;;;;;;;4.90;4.07;;;17.20;99.90;;;;;;5021638;28;20030;-66
2023/06/13 03:09:06;;;;;;;6.68;3.95;;;17.30;99.90;;;;;;5021772;28;20033;-66
2023/06/13 03:11:32;;;;;;;8.43;4.28;;;17.20;99.90;;;;;;5021329;28;20030;-66
2023/06/13 03:13:57;;;;;;;8.00;3.78;;;17.10;99.90;;;;;;5021638;28;20057;-66
2023/06/13 03:16:23;;;;;;;11.07;4.18;;;17.10;99.90;;;;;;5021950;28;20045;-66
2023/06/13 03:18:48;;;;;;;5.75;4.03;;;16.90;99.90;;;;;;5022428;28;20067;-66
2023/06/13 03:21:15;;;;;;;10.63;3.75;;;17.00;99.90;;;;;;5022150;28;20048;-66
2023/06/13 03:23:40;;;;;;;7.50;4.28;;;16.90;99.90;;;;;;5021483;28;20029;-66
2023/06/13 03:26:06;;;;;;;6.20;4.38;;;16.90;99.90;;;;;;5021286;28;20044;-66
2023/06/13 03:28:31;;;;;;;11.73;4.20;;;17.00;99.90;;;;;;5022075;28;20026;-66
2023/06/13 03:31:00;;;;;;;9.13;3.75;;;17.10;99.90;;;;;;5021331;28;20025;-66
2023/06/13 03:33:25;;;;;;;6.15;3.70;;;17.20;99.90;;;;;;5021516;28;20030;-66
2023/06/13 03:35:52;;;;;;;5.93;3.83;;;17.20;99.90;;;;;;5021268;28;20029;-66
2023/06/13 03:38:19;;;;;;;6.40;3.80;;;17.40;99.90;;;;;;5020398;28;20026;-66
2023/06/13 03:40:44;;;;;;;7.68;3.78;;;17.30;99.90;;;;;;5021631;28;20025;-66
2023/06/13 03:43:10;;;;;;;6.93;4.05;;;17.40;99.90;;;;;;5021199;28;20032;-66
2023/06/13 03:45:36;;;;;;;7.05;3.70;;;17.40;99.90;;;;;;5021134;28;20065;-66
2023/06/13 03:48:02;;;;;;;8.95;3.58;;;17.30;99.90;;;;;;5020817;28;20064;-66
2023/06/13 03:50:27;;;;;;;9.57;3.80;;;17.30;99.90;;;;;;5020939;28;20112;-66
2023/06/13 03:52:53;;;;;;;6.60;4.18;;;17.30;99.90;;;;;;5021070;28;20076;-66
2023/06/13 03:55:19;;;;;;;6.05;3.83;;;17.30;99.90;;;;;;5021000;28;20037;-66
2023/06/13 03:57:45;;;;;;;6.97;4.30;;;17.20;99.90;;;;;;5021106;28;20021;-66
2023/06/13 04:00:11;;;;;;;7.93;3.78;;;17.10;99.90;;;;;;5020606;28;20022;-66
2023/06/13 04:02:37;;;;;;;4.93;3.60;;;17.00;99.90;;;;;;5021286;28;20071;-66
2023/06/13 04:05:04;;;;;;;6.10;4.20;;;16.90;99.90;;;;;;5020997;28;20021;-66
2023/06/13 04:07:33;;;;;;;7.53;3.78;;;16.90;99.90;;;;;;5020632;28;20060;-66
2023/06/13 04:10:00;;;;;;;6.60;3.83;;;17.00;99.90;;;;;;5020881;28;20029;-66
2023/06/13 04:12:25;;;;;;;7.72;4.13;;;17.00;99.90;;;;;;5021044;28;20030;-66
2023/06/13 04:14:51;;;;;;;6.32;3.47;;;17.00;99.90;;;;;;5020671;28;20096;-66
2023/06/13 04:17:16;;;;;;;8.85;4.30;;;17.10;99.90;;;;;;5020246;28;20017;-66
2023/06/13 04:19:42;;;;;;;10.55;3.78;;;17.10;99.90;;;;;;5020626;28;20117;-66
2023/06/13 04:22:08;;;;;;;5.18;3.67;;;17.20;99.90;;;;;;5020367;28;20079;-66
2023/06/13 04:24:33;;;;;;;6.25;3.72;;;17.20;99.90;;;;;;5020055;28;20108;-66
2023/06/13 04:27:03;;;;;;;8.25;3.72;;;17.20;99.90;;;;;;5020090;28;20065;-66
2023/06/13 04:29:30;;;;;;;4.57;3.35;;;17.30;99.90;;;;;;5020221;28;20040;-66
2023/06/13 04:31:55;;;;;;;4.63;3.65;;;17.30;99.90;;;;;;5020303;28;20096;-66
2023/06/13 04:34:23;;;;;;;6.18;3.50;;;17.30;99.90;;;;;;5020406;28;20138;-66
2023/06/13 04:36:49;;;;;;;7.28;4.13;;;17.30;99.90;;;;;;5020358;28;20022;-66
2023/06/13 04:39:17;;;;;;;9.55;4.28;;;17.40;99.90;;;;;;5020735;28;20033;-66
2023/06/13 04:41:43;;;;;;;8.68;4.50;;;17.30;99.90;;;;;;5020940;28;20057;-66
2023/06/13 04:44:09;;;;;;;7.53;4.20;;;17.10;99.90;;;;;;5020210;28;20038;-66
2023/06/13 04:46:38;;;;;;;7.57;4.03;;;17.20;99.90;;;;;;5019940;28;20034;-66
2023/06/13 04:49:04;;;;;;;7.25;3.78;;;17.30;99.90;;;;;;5019842;28;20030;-66
2023/06/13 04:51:32;;;;;;;9.82;3.72;;;17.20;99.90;;;;;;5020007;28;20028;-67
2023/06/13 04:53:58;;;;;;;8.85;4.03;;;17.20;99.90;;;;;;5019969;28;20116;-67
2023/06/13 04:56:25;;;;;;;8.27;4.38;;;17.20;99.90;;;;;;5019805;28;20025;-66
2023/06/13 04:58:52;;;;;;;7.57;4.30;;;17.30;99.90;;;;;;5019948;28;20049;-66
2023/06/13 05:01:19;;;;;;;6.00;3.85;;;17.30;99.90;;;;;;5019808;28;20033;-66
2023/06/13 05:03:45;;;;;;;5.47;3.83;;;17.40;99.90;;;;;;5020455;28;20057;-66
2023/06/13 05:06:12;;;;;;;5.45;3.60;;;17.40;99.90;;;;;;5020203;28;20033;-66
2023/06/13 05:08:38;;;;;;;6.43;4.15;;;17.60;99.90;;;;;;5019632;28;20026;-66
2023/06/13 05:11:04;;;;;;;8.73;3.90;;;17.60;99.90;;;;;;5020096;28;20060;-66
2023/06/13 05:13:29;;;;;;;7.85;3.95;;;17.60;99.90;;;;;;5019526;28;20041;-66
2023/06/13 05:15:55;;;;;;;8.43;5.05;;;17.60;99.90;;;;;;5019812;28;20025;-66
2023/06/13 05:18:29;;;;;;;7.05;4.25;;;17.70;99.90;;;;;;5019719;28;20067;-66
2023/06/13 05:20:58;;;;;;;8.93;5.18;;;17.90;99.90;;;;;;5019521;28;20055;-66
2023/06/13 05:23:24;;;;;;;8.80;3.90;;;18.00;99.90;;;;;;5020450;28;20048;-66
2023/06/13 05:25:49;;;;;;;11.15;4.60;;;18.00;99.90;;;;;;5019722;28;20021;-66
2023/06/13 05:28:16;;;;;;;6.85;4.63;;;18.10;99.90;;;;;;5020901;28;20033;-66
2023/06/13 05:30:42;;;;;;;7.93;4.30;;;17.90;99.90;;;;;;5020104;28;20025;-66
2023/06/13 05:33:08;;;;;;;8.30;4.32;;;18.10;99.90;;;;;;5020251;28;20032;-66
2023/06/13 05:35:34;;;;;;;9.57;4.18;;;18.20;99.90;;;;;;5020134;28;20021;-66
2023/06/13 05:38:00;;;;;;;5.50;3.63;;;18.20;99.90;;;;;;5019508;28;20018;-66
2023/06/13 05:40:25;;;;;;;7.13;3.80;;;18.20;99.90;;;;;;5019426;28;20026;-66
2023/06/13 05:42:51;;;;;;;5.10;3.85;;;18.40;99.90;;;;;;5019290;28;20117;-66
2023/06/13 05:45:16;;;;;;;7.95;4.40;;;18.30;99.90;;;;;;5019858;28;20025;-66
2023/06/13 05:47:42;;;;;;;6.95;4.13;;;18.40;99.90;;;;;;5019222;28;20038;-66
2023/06/13 05:50:08;;;;;;;8.73;4.00;;;18.50;99.90;;;;;;5019425;28;20021;-66
2023/06/13 05:52:34;;;;;;;7.50;4.07;;;18.60;99.90;;;;;;5019548;28;20021;-66
2023/06/13 05:55:01;;;;;;;8.38;3.90;;;18.60;99.90;;;;;;5019619;28;20125;-66
2023/06/13 05:57:41;;;;;;;6.97;3.88;;;18.70;99.90;;;;;;5019691;28;20025;-66
2023/06/13 06:00:14;;;;;;;6.32;3.55;;;18.70;99.90;;;;;;5019182;28;20026;-66
2023/06/13 06:02:44;;;;;;;9.18;4.22;;;18.90;99.90;;;;;;5021610;28;20025;-66
2023/06/13 06:05:13;;;;;;;6.80;4.28;;;19.00;99.90;;;;;;5023583;28;20032;-66
2023/06/13 06:07:40;;;;;;;5.00;4.00;;;19.00;99.90;;;;;;5022900;28;20036;-66
2023/06/13 06:10:07;;;;;;;6.85;3.53;;;19.00;99.90;;;;;;5022953;28;20025;-66
2023/06/13 06:12:32;;;;;;;5.95;3.80;;;19.20;99.90;;;;;;5022907;28;20048;-66
2023/06/13 06:14:58;;;;;;;10.63;4.00;;;19.30;99.90;;;;;;5023740;28;20021;-66
2023/06/13 06:17:24;;;;;;;10.07;4.25;;;19.40;99.90;;;;;;5022835;28;20024;-66
2023/06/13 06:19:50;;;;;;;7.15;3.92;;;19.50;99.90;;;;;;5022555;28;20026;-66
2023/06/13 06:22:16;;;;;;;6.63;3.70;;;19.50;99.90;;;;;;5022335;28;20025;-66
2023/06/13 06:24:44;;;;;;;7.57;3.97;;;19.60;99.90;;;;;;5022709;28;20033;-66
2023/06/13 06:27:13;;;;;;;6.75;4.07;;;19.70;99.90;;;;;;5022284;28;20120;-66
2023/06/13 06:29:39;;;;;;;9.50;3.80;;;19.70;99.90;;;;;;5022419;28;20052;-66
2023/06/13 06:32:06;;;;;;;11.48;4.38;;;19.80;99.90;;;;;;5022488;28;20048;-66
2023/06/13 06:34:32;;;;;;;12.45;4.15;;;19.90;99.90;;;;;;5022111;28;20021;-66
2023/06/13 06:36:58;;;;;;;8.50;3.88;;;20.00;99.90;;;;;;5022518;28;20053;-67
2023/06/13 06:39:24;;;;;;;8.13;3.90;;;20.10;99.90;;;;;;5022368;28;20037;-66
2023/06/13 06:41:49;;;;;;;8.82;4.03;;;20.20;99.90;;;;;;5021889;28;20026;-66
2023/06/13 06:44:15;;;;;;;5.70;4.10;;;20.20;99.90;;;;;;5022503;28;20055;-67
2023/06/13 06:46:41;;;;;;;8.25;3.72;;;20.30;99.90;;;;;;5022513;28;20022;-67
2023/06/13 06:49:07;;;;;;;8.80;4.53;;;20.30;99.90;;;;;;5022188;28;20032;-67
2023/06/13 06:51:33;;;;;;;7.63;3.78;;;20.40;99.90;;;;;;5022143;28;20056;-67
2023/06/13 06:53:59;;;;;;;6.53;3.42;;;20.50;99.90;;;;;;5022047;28;20079;-67
2023/06/13 06:56:24;;;;;;;13.07;4.65;;;20.50;99.90;;;;;;5022086;28;20131;-67
2023/06/13 06:58:50;;;;;;;9.95;3.83;;;20.70;99.90;;;;;;5022535;28;20039;-67
2023/06/13 07:01:16;;;;;;;7.53;3.58;;;20.80;99.90;;;;;;5022659;28;20089;-66
2023/06/13 07:03:41;;;;;;;4.82;2.88;;;20.90;99.90;;;;;;5021768;28;20056;-66
2023/06/13 07:06:07;;;;;;;3.75;3.08;;;20.90;99.90;;;;;;5022678;28;20029;-66
2023/06/13 07:08:33;;;;;;;9.02;3.30;;;21.10;99.90;;;;;;5021551;28;20028;-71
2023/06/13 07:10:59;;;;;;;6.38;2.97;;;21.20;99.90;;;;;;5022296;28;20113;-71
2023/06/13 07:13:26;;;;;;;8.30;3.17;;;21.30;99.90;;;;;;5021630;28;20021;-70
2023/06/13 07:15:52;;;;;;;8.98;3.30;;;21.40;99.90;;;;;;5022495;28;20025;-70
2023/06/13 07:18:17;;;;;;;4.45;3.03;;;21.30;99.90;;;;;;5021665;28;20028;-67
2023/06/13 07:20:44;;;;;;;10.88;3.22;;;21.50;99.90;;;;;;5022018;28;20128;-67
2023/06/13 07:23:10;;;;;;;8.35;2.75;;;21.50;99.90;;;;;;5022033;28;20021;-67
2023/06/13 07:25:35;;;;;;;5.00;3.35;;;21.60;98.50;;;;;;5021199;28;20028;-67
2023/06/13 07:28:01;;;;;;;5.55;2.50;;;21.70;97.10;;;;;;5045608;22;20038;-68
2023/06/13 07:30:27;;;;;;;3.60;2.63;;;21.70;97.30;;;;;;5038519;28;20025;-68
2023/06/13 07:32:52;;;;;;;5.28;2.58;;;21.80;96.30;;;;;;5038489;28;20021;-68
2023/06/13 07:35:23;;;;;;;3.25;2.40;;;21.90;95.50;;;;;;5021034;28;20017;-69
2023/06/13 07:37:55;;;;;;;4.43;2.75;;;21.90;95.00;;;;;;5038514;28;20018;-69
2023/06/13 07:40:21;;;;;;;3.72;2.22;;;21.90;93.80;;;;;;5038530;28;20087;-69
2023/06/13 07:42:48;;;;;;;4.43;2.80;;;22.00;93.70;;;;;;5038722;28;20025;-69
2023/06/13 07:45:14;;;;;;;4.80;2.95;;;22.10;91.80;;;;;;5021244;28;20049;-69
2023/06/13 07:47:39;;;;;;;4.80;3.13;;;22.10;91.00;;;;;;5021104;28;20026;-69
2023/06/13 07:50:05;;;;;;;5.38;3.03;;;22.10;90.20;;;;;;5020912;28;20036;-69
2023/06/13 07:52:31;;;;;;;4.00;3.08;;;22.10;89.90;;;;;;5021301;28;20113;-69
2023/06/13 07:54:57;;;;;;;3.03;2.50;;;22.30;90.90;;;;;;5020715;28;20120;-69
2023/06/13 07:57:23;;;;;;;6.70;2.72;;;22.30;90.50;;;;;;5020891;28;20049;-69
2023/06/13 07:59:48;;;;;;;6.80;3.15;;;22.30;89.30;;;;;;5021097;28;20056;-69
2023/06/13 08:02:14;;;;;;;5.80;3.72;;;22.40;90.50;;;;;;5020678;28;20048;-69
2023/06/13 08:04:40;;;;;;;10.75;3.15;;;22.40;91.20;;;;;;5020516;28;20021;-69
2023/06/13 08:07:05;;;;;;;7.10;3.33;;;22.50;90.00;;;;;;5020661;28;20033;-69
2023/06/13 08:09:31;;;;;;;4.82;3.33;;;22.70;90.70;;;;;;5038151;28;20063;-69
2023/06/13 08:11:59;;;;;;;4.28;3.28;;;22.60;89.10;;;;;;5020460;28;20110;-69
2023/06/13 08:14:25;;;;;;;8.48;2.97;;;22.70;90.10;;;;;;5020369;28;20045;-69
2023/06/13 08:16:50;;;;;;;7.97;3.22;;;23.00;90.40;;;;;;5020247;28;20022;-69
2023/06/13 08:19:16;;;;;;;10.57;3.17;;;23.00;89.20;;;;;;5038112;28;20029;-69
2023/06/13 08:21:42;;;;;;;11.45;3.20;;;23.00;89.30;;;;;;5020275;28;20049;-69
2023/06/13 08:24:07;;;;;;;5.80;3.35;;;23.10;89.50;;;;;;5019829;28;20029;-69
2023/06/13 08:26:33;;;;;;;5.78;3.40;;;23.20;88.90;;;;;;5019945;28;20033;-69
2023/06/13 08:29:02;;;;;;;4.32;3.00;;;23.20;89.70;;;;;;5020324;28;20123;-69
2023/06/13 08:31:31;;;;;;;8.23;3.53;;;23.10;89.60;;;;;;5020352;28;20032;-69
2023/06/13 08:33:58;;;;;;;9.30;3.70;;;23.50;87.70;;;;;;5019940;28;20083;-69
2023/06/13 08:36:25;;;;;;;8.77;3.60;;;23.70;87.00;;;;;;5020436;28;20028;-69
2023/06/13 08:38:51;;;;;;;4.22;2.92;;;23.70;86.90;;;;;;5019963;28;20033;-69
2023/06/13 08:41:17;;;;;;;7.22;3.10;;;23.70;83.30;;;;;;5020130;28;20029;-68
2023/06/13 08:43:44;;;;;;;3.67;2.97;;;23.80;87.60;;;;;;5020123;28;20026;-69
2023/06/13 08:46:10;;;;;;;6.10;3.03;;;23.90;87.20;;;;;;5019831;28;20029;-69
2023/06/13 08:48:36;;;;;;;6.53;2.90;;;23.70;86.30;;;;;;5019867;28;20026;-69
2023/06/13 08:51:04;;;;;;;5.70;3.50;;;23.60;85.40;;;;;;5019738;28;20080;-69
2023/06/13 08:53:32;;;;;;;4.05;2.90;;;23.60;84.90;;;;;;5037412;28;20018;-69
2023/06/13 08:56:02;;;;;;;5.45;3.38;;;23.80;83.90;;;;;;5019716;28;20018;-69
2023/06/13 08:58:32;;;;;;;4.22;2.90;;;24.10;81.30;;;;;;5019750;28;20056;-69
2023/06/13 09:01:00;;;;;;;9.07;2.90;;;24.10;77.50;;;;;;5019790;28;20069;-69
2023/06/13 09:03:28;;;;;;;5.32;2.90;;;24.20;76.40;;;;;;5037339;28;20025;-69
2023/06/13 09:05:55;;;;;;;6.78;2.83;;;24.40;77.80;;;;;;5037036;28;20028;-69
2023/06/13 09:08:22;;;;;;;5.45;3.00;;;24.50;75.30;;;;;;5037173;28;20029;-69
2023/06/13 09:10:49;;;;;;;8.95;3.50;;;24.60;75.90;;;;;;5036872;28;20030;-69
2023/06/13 09:13:16;;;;;;;5.45;2.85;;;24.60;74.30;;;;;;5019707;28;20021;-69
2023/06/13 09:15:43;;;;;;;6.43;2.80;;;24.40;74.40;;;;;;5019559;28;20113;-69
2023/06/13 09:18:10;;;;;;;4.97;2.70;;;24.50;73.80;;;;;;5019435;28;20029;-69
2023/06/13 09:20:35;;;;;;;5.53;2.72;;;24.50;74.00;;;;;;5036934;28;20155;-69
2023/06/13 09:23:01;;;;;;;12.55;3.03;;;24.60;74.00;;;;;;5037195;28;20112;-69
2023/06/13 09:25:30;;;;;;;3.95;3.00;;;24.80;75.70;;;;;;5036881;28;20036;-69
2023/06/13 09:27:56;;;;;;;4.07;3.22;;;24.80;74.90;;;;;;5036714;28;20034;-69
2023/06/13 09:30:21;;;;;;;6.78;2.97;;;24.70;73.60;;;;;;5019746;28;20084;-69
2023/06/13 09:32:49;;;;;;;3.33;3.03;;;25.10;74.10;;;;;;5019352;28;20064;-69
2023/06/13 09:35:16;;;;;;;4.53;2.92;;;25.00;72.00;;;;;;5036977;28;20049;-69
2023/06/13 09:37:41;;;;;;;7.70;3.30;;;24.60;72.60;;;;;;5022019;28;20028;-69
2023/06/13 09:40:09;;;;;;;8.65;3.33;;;24.60;72.60;;;;;;5023567;28;20029;-68
2023/06/13 09:42:35;;;;;;;3.97;3.35;;;24.60;73.30;;;;;;5023957;28;20049;-68
2023/06/13 09:45:08;;;;;;;10.48;3.13;;;24.80;74.40;;;;;;5023549;28;20032;-69
2023/06/13 09:47:34;;;;;;;7.05;3.33;;;25.20;72.20;;;;;;5023398;28;20025;-69
2023/06/13 09:50:00;;;;;;;3.65;2.67;;;25.30;72.30;;;;;;5023192;28;20025;-69
2023/06/13 09:52:28;;;;;;;4.88;3.10;;;25.30;71.00;;;;;;5023087;28;20057;-69
2023/06/13 09:54:54;;;;;;;4.45;3.15;;;25.50;70.90;;;;;;5022766;28;20093;-69
2023/06/13 09:57:21;;;;;;;6.97;3.53;;;25.70;68.80;;;;;;5023121;28;20071;-69
2023/06/13 09:59:48;;;;;;;7.32;2.97;;;25.80;69.80;;;;;;5023823;28;20191;-69
2023/06/13 10:02:16;;;;;;;4.63;3.35;;;25.90;70.40;;;;;;5023156;28;20021;-69
2023/06/13 10:04:41;;;;;;;7.80;3.13;;;25.80;70.90;;;;;;5022697;28;20037;-69
2023/06/13 10:07:07;;;;;;;4.25;2.83;;;25.90;71.10;;;;;;5040339;28;20025;-69
2023/06/13 10:09:33;;;;;;;4.10;2.90;;;26.20;70.40;;;;;;5022692;28;20114;-69
2023/06/13 10:12:02;;;;;;;7.35;3.40;;;25.70;70.20;;;;;;5022731;28;20072;-69
2023/06/13 10:14:32;;;;;;;6.03;2.63;;;25.90;71.30;;;;;;5022570;28;20061;-69
2023/06/13 10:17:05;;;;;;;4.88;3.30;;;25.90;69.10;;;;;;5022410;28;20022;-69
2023/06/13 10:19:33;;;;;;;6.18;3.33;;;25.50;68.90;;;;;;5022554;28;20112;-69
2023/06/13 10:22:00;;;;;;;6.70;2.92;;;25.50;68.40;;;;;;5022536;28;20029;-69
2023/06/13 10:24:26;;;;;;;8.45;3.50;;;25.50;69.50;;;;;;5022491;28;20036;-69
2023/06/13 10:26:56;;;;;;;5.43;3.28;;;25.80;71.40;;;;;;5022297;28;20037;-69
2023/06/13 10:29:36;;;;;;;6.47;2.97;;;25.80;70.00;;;;;;5039830;28;20037;-69
2023/06/13 10:32:43;;;;;;;6.20;3.10;;;26.00;69.10;;;;;;5022385;28;20023;-69
2023/06/13 10:35:16;;;;;;;6.18;3.22;;;26.50;71.60;;;;;;4940975;29;20099;-69
2023/06/13 10:38:05;;;;;;;7.60;3.50;;;27.00;67.50;;;;;;5006822;28;20040;-69
2023/06/13 10:41:08;;;;;;;5.18;3.38;;;27.30;68.30;;;;;;5022386;28;20040;-69
2023/06/13 10:44:12;;;;;;;4.60;3.25;;;27.70;67.20;;;;;;5022083;28;20072;-69
2023/06/13 10:46:38;;;;;;;4.60;3.58;;;27.80;65.30;;;;;;5039499;28;20041;-69
2023/06/13 10:49:03;;;;;;;5.72;3.50;;;27.90;65.70;;;;;;5022347;28;20085;-69
2023/06/13 10:51:30;;;;;;;3.67;3.20;;;27.90;65.20;;;;;;5022693;28;20085;-69
2023/06/13 10:54:02;;;;;;;4.13;3.58;;;27.70;65.00;;;;;;5039269;28;20050;-69
2023/06/13 10:56:32;;;;;;;5.95;3.70;;;27.60;66.30;;;;;;5022126;28;20021;-69
2023/06/13 10:59:04;;;;;;;7.87;3.33;;;27.80;65.70;;;;;;5021754;28;20025;-69
2023/06/13 11:01:31;;;;;;;5.40;3.67;;;27.50;65.70;;;;;;5021822;28;20260;-69
2023/06/13 11:04:08;;;;;;;5.32;3.67;;;27.80;66.00;;;;;;5021931;28;20065;-69
2023/06/13 11:06:34;;;;;;;11.90;3.45;;;27.80;65.50;;;;;;5021847;28;20018;-69
2023/06/13 11:09:16;;;;;;;6.40;3.50;;;28.40;66.20;;;;;;5021880;28;20028;-69
2023/06/13 11:12:02;;;;;;;6.72;4.15;;;28.90;64.90;;;;;;5021563;28;20017;-69
2023/06/13 11:14:32;;;;;;;8.63;3.42;;;29.00;65.30;;;;;;5021433;28;20022;-70
2023/06/13 11:16:58;;;;;;;6.55;3.28;;;29.30;65.80;;;;;;5021530;28;20034;-70
2023/06/13 11:19:27;;;;;;;9.75;3.83;;;29.20;64.50;;;;;;5021801;28;20033;-69
2023/06/13 11:21:59;;;;;;;4.57;4.00;;;29.00;66.10;;;;;;5022153;28;20021;-70
2023/06/13 11:24:28;;;;;;;8.23;4.05;;;29.50;64.70;;;;;;5022241;28;20120;-70
2023/06/13 11:26:55;;;;;;;8.93;3.55;;;29.70;65.50;;;;;;5021022;28;20037;-69
2023/06/13 11:29:22;;;;;;;11.25;3.80;;;29.70;63.40;;;;;;5021189;28;20026;-69
2023/06/13 11:31:51;;;;;;;4.07;3.67;;;29.90;64.20;;;;;;5021160;28;20032;-69
2023/06/13 11:34:19;;;;;;;4.45;3.55;;;29.80;61.90;;;;;;5021559;28;20199;-70
2023/06/13 11:36:46;;;;;;;9.55;3.72;;;29.80;63.00;;;;;;5020994;28;20022;-69
2023/06/13 11:39:30;;;;;;;6.53;3.67;;;29.70;62.80;;;;;;5021179;28;20053;-69
2023/06/13 11:41:57;;;;;;;6.55;3.97;;;30.00;61.80;;;;;;5038435;28;20030;-69
2023/06/13 11:44:22;;;;;;;5.75;3.63;;;30.10;62.60;;;;;;5020829;28;20088;-69
2023/06/13 11:46:49;;;;;;;7.63;3.92;;;30.40;62.80;;;;;;5020836;28;20097;-70
2023/06/13 11:49:15;;;;;;;5.70;3.97;;;30.60;59.90;;;;;;5020672;28;20037;-70
2023/06/13 11:51:41;;;;;;;4.75;3.33;;;30.30;57.80;;;;;;5020826;28;20067;-70
2023/06/13 11:54:08;;;;;;;4.28;3.10;;;30.30;59.30;;;;;;5021009;28;20080;-70
2023/06/13 11:56:36;;;;;;;5.05;3.50;;;30.20;59.50;;;;;;5020797;28;20061;-69
2023/06/13 11:59:14;;;;;;;4.20;3.30;;;30.60;59.00;;;;;;5019948;28;20028;-70
2023/06/13 12:01:39;;;;;;;4.22;3.75;;;30.10;60.20;;;;;;5021431;28;20028;-70
2023/06/13 12:04:05;;;;;;;3.75;3.42;;;30.30;59.20;;;;;;5038001;28;20025;-69
2023/06/13 12:06:30;;;;;;;4.72;3.45;;;30.40;59.10;;;;;;5020757;28;20017;-69
2023/06/13 12:08:56;;;;;;;6.38;3.70;;;30.60;57.70;;;;;;5020702;28;20021;-69
2023/06/13 12:11:23;;;;;;;4.18;3.53;;;30.40;57.20;;;;;;5021507;28;20029;-70
2023/06/13 12:13:56;;;;;;;6.15;3.47;;;30.50;57.40;;;;;;5020742;28;20026;-70
2023/06/13 12:16:23;;;;;;;7.45;3.53;;;30.60;56.50;;;;;;5020598;28;20025;-70
2023/06/13 12:18:53;;;;;;;5.13;3.60;;;30.30;58.30;;;;;;5037899;28;20077;-70
2023/06/13 12:21:27;;;;;;;7.18;3.60;;;30.10;57.40;;;;;;5021138;28;20021;-69
2023/06/13 12:23:52;;;;;;;5.28;3.70;;;30.40;57.60;;;;;;5020275;28;20025;-70
2023/06/13 12:26:18;;;;;;;8.20;3.72;;;30.40;57.00;;;;;;5019961;28;20101;-70
2023/06/13 12:28:44;;;;;;;5.00;3.65;;;30.50;57.00;;;;;;5037772;28;20017;-69
2023/06/13 12:31:10;;;;;;;7.10;4.13;;;30.20;56.60;;;;;;5020047;28;20037;-70
2023/06/13 12:33:36;;;;;;;5.00;3.67;;;30.00;56.70;;;;;;5037527;28;20021;-69
2023/06/13 12:36:05;;;;;;;7.38;3.47;;;30.10;58.50;;;;;;5019903;28;20022;-69
2023/06/13 12:38:31;;;;;;;5.45;3.83;;;30.30;57.70;;;;;;5021872;28;20025;-69
2023/06/13 12:40:58;;;;;;;6.63;3.45;;;30.50;56.80;;;;;;5037424;28;20025;-69
2023/06/13 12:43:30;;;;;;;4.80;3.72;;;31.00;55.30;;;;;;5037266;28;20029;-69
2023/06/13 12:45:57;;;;;;;6.43;3.72;;;30.60;56.50;;;;;;5020475;28;20029;-69
2023/06/13 12:48:23;;;;;;;6.78;3.92;;;30.50;58.10;;;;;;5037407;28;20108;-69